X  Chiuso Dati meteorologici dell'aviazione (METAR)     LIPX Verona-Villafranca Valerio Catullo Airport
Temperatura
5°C Temperatura
1°C Punto di rugiada
76% Umidità



Vento
3 M/S
6 MPH
10 KM/O
5 KTS



360°
N
Condizioni attuali

Chiaro Chiaro
Pressione 1025.06 (hPa) - 30.27 (inHg)
Visibilità 3.7 (miglio) - 6 (km)
Aeroporto
Codice-Aeroporto LIPX

Posizione: Verona-Villafranca Valerio Catullo Airport
Distanza: 0 (km)

Metar:
LIPX 210450Z 36005KT 6000 NSC 05/01 Q1025

Ore: 21-02-2024 04:50 CET